Terminal Aerodrome Forecast
Issued by NWS

Home | Current Version | Previous Version | Text Only | Print | Product List | Glossary On
Versions: 1 2 3 4 5 6 7 8 9 10 11 12 13 14
000
FTUS45 KFGZ 192338
TAFPRC
TAF
KPRC 192338Z 2000/2024 21010KT P6SM BKN025 OVC050
     FM200400 18005KT P6SM SCT040 OVC060
     FM200800 18005KT P6SM VCFG SCT007 BKN050
     FM201600 VRB05KT P6SM BKN250=

USA.gov is the U.S. government's official web portal to all federal, state and local government web resources and services.